Time;durP1;ratioP1;P1;durP2;ratioP2;P2;SDS_P1;SDS_P2;PMS_P1;PMS_P2;Temp;Humidity;BMP_temperature;BMP_pressure;BME280_temperature;BME280_humidity;BME280_pressure;Samples;Min_cycle;Max_cycle;Signal;HPM_P1;HPM_P2
2023/10/06 00:01:11;;;;;;;11.87;10.70;;;14.80;99.90;;;;;;5035933;28;20948;-69
2023/10/06 00:03:41;;;;;;;16.00;12.50;;;14.70;99.90;;;;;;5035895;28;20439;-69
2023/10/06 00:06:13;;;;;;;14.93;11.53;;;14.70;99.90;;;;;;5035865;28;20455;-69
2023/10/06 00:08:51;;;;;;;15.70;11.37;;;14.70;99.90;;;;;;5035750;28;20989;-69
2023/10/06 00:11:31;;;;;;;13.93;11.70;;;14.70;99.90;;;;;;5036057;28;20419;-69
2023/10/06 00:14:03;;;;;;;12.73;11.43;;;14.70;99.90;;;;;;5035690;28;20427;-69
2023/10/06 00:16:38;;;;;;;13.60;12.00;;;14.70;99.90;;;;;;5034395;28;20439;-69
2023/10/06 00:19:26;;;;;;;17.00;13.67;;;14.60;99.90;;;;;;5035911;28;20431;-69
2023/10/06 00:22:12;;;;;;;13.73;12.40;;;14.60;99.90;;;;;;5035908;28;20411;-69
2023/10/06 00:24:42;;;;;;;14.13;12.73;;;14.60;99.90;;;;;;5035756;28;20513;-69
2023/10/06 00:27:12;;;;;;;14.97;13.40;;;14.60;99.90;;;;;;5035222;28;20794;-69
2023/10/06 00:29:47;;;;;;;16.80;12.80;;;14.50;99.90;;;;;;5034028;28;20582;-69
2023/10/06 00:32:26;;;;;;;14.03;12.10;;;14.50;99.90;;;;;;5035343;28;20472;-69
2023/10/06 00:35:07;;;;;;;14.60;13.17;;;14.50;99.90;;;;;;5035437;28;20459;-69
2023/10/06 00:37:38;;;;;;;13.57;12.20;;;14.50;99.90;;;;;;5034048;28;20431;-69
2023/10/06 00:40:19;;;;;;;14.23;11.97;;;14.50;99.90;;;;;;5034070;28;20443;-69
2023/10/06 00:42:53;;;;;;;13.60;11.53;;;14.50;99.90;;;;;;5035349;28;20419;-69
2023/10/06 00:45:22;;;;;;;15.67;14.13;;;14.50;99.90;;;;;;5035065;28;20462;-69
2023/10/06 00:47:53;;;;;;;14.70;12.40;;;14.40;99.90;;;;;;5033702;28;20474;-69
2023/10/06 00:50:24;;;;;;;13.10;11.70;;;14.40;99.90;;;;;;5035020;28;20811;-69
2023/10/06 00:52:53;;;;;;;13.40;12.10;;;14.40;99.90;;;;;;5033763;28;20443;-69
2023/10/06 00:55:22;;;;;;;14.00;12.70;;;14.40;99.90;;;;;;5033905;28;20841;-69
2023/10/06 00:57:53;;;;;;;14.07;12.57;;;14.40;99.90;;;;;;5033645;28;20549;-69
2023/10/06 01:00:22;;;;;;;13.30;12.10;;;14.40;99.90;;;;;;5033539;28;20462;-69
2023/10/06 01:02:51;;;;;;;13.90;12.50;;;14.40;99.90;;;;;;5034781;28;20443;-69
2023/10/06 01:05:20;;;;;;;13.57;12.27;;;14.40;99.90;;;;;;5033400;28;20505;-69
2023/10/06 01:07:49;;;;;;;13.47;12.07;;;14.30;99.90;;;;;;5033281;28;20447;-69
2023/10/06 01:10:27;;;;;;;13.33;12.00;;;14.30;99.90;;;;;;5033376;28;20447;-69
2023/10/06 01:12:57;;;;;;;13.47;12.10;;;14.30;99.90;;;;;;5033318;28;20447;-69
2023/10/06 01:15:29;;;;;;;13.43;12.13;;;14.30;99.90;;;;;;5033177;28;20469;-69
2023/10/06 01:17:59;;;;;;;13.53;12.13;;;14.30;99.90;;;;;;5034534;28;20438;-69
2023/10/06 01:20:34;;;;;;;13.90;12.50;;;14.30;99.90;;;;;;5033223;28;20474;-69
2023/10/06 01:23:10;;;;;;;17.17;13.17;;;14.30;99.90;;;;;;5034720;28;20434;-69
2023/10/06 01:25:39;;;;;;;15.27;13.10;;;14.30;99.90;;;;;;5034381;28;20493;-69
2023/10/06 01:28:12;;;;;;;15.50;12.50;;;14.30;99.90;;;;;;5032844;28;20892;-69
2023/10/06 01:30:40;;;;;;;14.50;13.07;;;14.30;99.90;;;;;;5033034;28;20454;-69
2023/10/06 01:33:10;;;;;;;15.57;14.07;;;14.30;99.90;;;;;;5033083;28;20478;-69
2023/10/06 01:35:42;;;;;;;16.67;14.87;;;14.20;99.90;;;;;;5034330;28;20802;-69
2023/10/06 01:38:22;;;;;;;15.40;13.93;;;14.20;99.90;;;;;;5034426;28;20423;-69
2023/10/06 01:40:53;;;;;;;17.57;15.70;;;14.20;99.90;;;;;;5034295;28;20430;-69
2023/10/06 01:43:23;;;;;;;16.13;14.50;;;14.20;99.90;;;;;;5034707;28;20416;-69
2023/10/06 01:45:52;;;;;;;18.53;16.40;;;14.20;99.90;;;;;;5034560;28;20459;-69
2023/10/06 01:48:29;;;;;;;18.83;17.03;;;14.20;99.90;;;;;;5032631;28;20466;-69
2023/10/06 01:50:58;;;;;;;19.83;16.80;;;14.20;99.90;;;;;;5033919;28;20430;-69
2023/10/06 01:53:32;;;;;;;18.90;16.93;;;14.20;99.90;;;;;;5033897;28;20518;-69
2023/10/06 01:56:06;;;;;;;19.83;17.80;;;14.20;99.90;;;;;;5032511;28;20550;-69
2023/10/06 01:58:36;;;;;;;20.70;18.60;;;14.20;99.90;;;;;;5032561;28;20447;-69
2023/10/06 02:01:07;;;;;;;22.27;19.90;;;14.20;99.90;;;;;;5033975;28;20442;-69
2023/10/06 02:03:41;;;;;;;20.40;18.63;;;14.20;99.90;;;;;;5032468;28;20924;-69
2023/10/06 02:06:15;;;;;;;20.83;18.63;;;14.20;99.90;;;;;;5032448;28;20507;-69
2023/10/06 02:08:49;;;;;;;18.80;16.97;;;14.20;99.90;;;;;;5032302;28;20517;-69
2023/10/06 02:11:18;;;;;;;24.30;21.90;;;14.20;99.90;;;;;;5032342;28;20550;-69
2023/10/06 02:13:46;;;;;;;23.80;21.37;;;14.20;99.90;;;;;;5032314;28;20454;-69
2023/10/06 02:16:17;;;;;;;23.00;20.90;;;14.20;99.90;;;;;;5032252;28;20493;-69
2023/10/06 02:18:45;;;;;;;24.57;22.23;;;14.20;99.90;;;;;;5033545;28;20423;-69
2023/10/06 02:21:14;;;;;;;26.37;23.80;;;14.20;99.90;;;;;;5033421;28;20434;-69
2023/10/06 02:23:44;;;;;;;25.23;23.00;;;14.20;99.90;;;;;;5033692;28;20983;-69
2023/10/06 02:26:13;;;;;;;23.77;21.53;;;14.20;99.90;;;;;;5031822;28;20463;-69
2023/10/06 02:28:48;;;;;;;25.67;23.20;;;14.20;99.90;;;;;;5032070;28;20463;-69
2023/10/06 02:31:21;;;;;;;25.87;23.60;;;14.10;99.90;;;;;;5032124;28;20441;-69
2023/10/06 02:33:51;;;;;;;25.33;22.67;;;14.10;99.90;;;;;;5032104;28;20461;-69
2023/10/06 02:36:21;;;;;;;25.43;23.13;;;14.10;99.90;;;;;;5032050;28;20459;-69
2023/10/06 02:38:50;;;;;;;23.67;21.60;;;14.10;99.90;;;;;;5032009;28;20443;-70
2023/10/06 02:41:25;;;;;;;24.67;22.20;;;14.10;99.90;;;;;;5033471;28;20993;-69
2023/10/06 02:43:55;;;;;;;24.10;21.70;;;14.10;99.90;;;;;;5033367;28;20423;-70
2023/10/06 02:46:25;;;;;;;22.50;20.27;;;14.10;99.90;;;;;;5031851;28;20447;-70
2023/10/06 02:48:54;;;;;;;23.70;21.40;;;14.10;99.90;;;;;;5031852;28;20499;-69
2023/10/06 02:51:32;;;;;;;22.40;20.13;;;14.10;99.90;;;;;;5031897;28;20577;-69
2023/10/06 02:54:20;;;;;;;23.00;20.70;;;14.10;99.90;;;;;;5037319;28;20513;-69
2023/10/06 02:56:50;;;;;;;21.60;19.60;;;14.10;99.90;;;;;;5039594;28;20442;-69
2023/10/06 02:59:21;;;;;;;23.03;20.80;;;14.10;99.90;;;;;;5037752;28;20435;-69
2023/10/06 03:01:55;;;;;;;19.57;17.50;;;14.00;99.90;;;;;;5037380;28;20815;-69
2023/10/06 03:04:26;;;;;;;22.10;19.40;;;14.10;99.90;;;;;;5038904;28;20467;-69
2023/10/06 03:06:57;;;;;;;18.40;16.80;;;14.00;99.90;;;;;;5037308;28;20435;-69
2023/10/06 03:09:36;;;;;;;18.50;16.70;;;14.00;99.90;;;;;;5036484;28;20506;-69
2023/10/06 03:12:15;;;;;;;20.37;18.33;;;14.00;99.90;;;;;;5036900;28;20438;-69
2023/10/06 03:14:44;;;;;;;18.57;16.83;;;14.00;99.90;;;;;;5035945;28;20473;-69
2023/10/06 03:17:13;;;;;;;18.23;16.50;;;14.00;99.90;;;;;;5036261;28;20443;-69
2023/10/06 03:19:43;;;;;;;18.13;16.30;;;14.00;99.90;;;;;;5038361;28;20441;-69
2023/10/06 03:22:13;;;;;;;19.07;17.27;;;14.00;99.90;;;;;;5036282;28;20447;-69
2023/10/06 03:24:53;;;;;;;18.50;16.53;;;14.00;99.90;;;;;;5037252;28;20918;-69
2023/10/06 03:27:24;;;;;;;16.90;15.20;;;14.00;99.90;;;;;;5035375;28;20534;-69
2023/10/06 03:29:55;;;;;;;16.17;14.67;;;14.00;99.90;;;;;;5037238;28;20847;-69
2023/10/06 03:32:32;;;;;;;15.23;13.60;;;14.00;99.90;;;;;;5035345;28;20450;-69
2023/10/06 03:35:09;;;;;;;17.50;14.53;;;14.00;99.90;;;;;;5035247;28;20466;-69
2023/10/06 03:37:44;;;;;;;16.70;14.90;;;14.00;99.90;;;;;;5035373;28;20439;-69
2023/10/06 03:40:21;;;;;;;16.60;15.10;;;14.00;99.90;;;;;;5035316;28;20442;-69
2023/10/06 03:42:52;;;;;;;14.47;13.07;;;14.00;99.90;;;;;;5035250;28;20430;-69
2023/10/06 03:45:29;;;;;;;15.80;13.80;;;14.00;99.90;;;;;;5035048;28;20498;-69
2023/10/06 03:48:08;;;;;;;14.77;13.27;;;14.00;99.90;;;;;;5037025;28;20784;-69
2023/10/06 03:50:40;;;;;;;13.83;12.10;;;14.00;99.90;;;;;;5036502;28;20463;-69
2023/10/06 03:53:13;;;;;;;15.90;12.73;;;14.00;99.90;;;;;;5036620;28;20489;-69
2023/10/06 03:55:42;;;;;;;14.37;12.87;;;14.00;99.90;;;;;;5036469;28;21050;-69
2023/10/06 03:58:14;;;;;;;13.47;12.07;;;14.00;99.90;;;;;;5037554;28;20445;-69
2023/10/06 04:00:47;;;;;;;13.30;12.00;;;14.00;99.90;;;;;;5037542;28;20574;-69
2023/10/06 04:03:17;;;;;;;15.53;12.07;;;14.00;99.90;;;;;;5036034;28;20427;-69
2023/10/06 04:05:48;;;;;;;13.77;12.37;;;14.00;99.90;;;;;;5035942;28;20459;-69
2023/10/06 04:08:19;;;;;;;13.43;12.20;;;14.00;99.90;;;;;;5036134;28;20423;-69
2023/10/06 04:10:51;;;;;;;14.43;13.00;;;14.00;99.90;;;;;;5034551;28;20521;-69
2023/10/06 04:13:21;;;;;;;12.43;10.87;;;14.00;99.90;;;;;;5035792;28;20419;-69
2023/10/06 04:15:50;;;;;;;14.30;11.90;;;14.00;99.90;;;;;;5035602;28;20512;-69
2023/10/06 04:18:21;;;;;;;11.90;10.70;;;14.00;99.90;;;;;;5035720;28;20562;-69
2023/10/06 04:20:50;;;;;;;13.90;11.27;;;14.00;99.90;;;;;;5035895;28;20443;-69
2023/10/06 04:23:22;;;;;;;12.83;11.50;;;14.00;99.90;;;;;;5034271;28;20458;-69
2023/10/06 04:25:55;;;;;;;13.30;11.27;;;14.00;99.90;;;;;;5034969;28;20826;-69
2023/10/06 04:28:26;;;;;;;12.47;11.20;;;14.00;99.90;;;;;;5035391;28;20468;-70
2023/10/06 04:30:57;;;;;;;13.90;10.50;;;14.00;99.90;;;;;;5035931;28;20451;-69
2023/10/06 04:33:28;;;;;;;15.23;11.40;;;14.00;99.90;;;;;;5035958;28;20419;-69
2023/10/06 04:35:59;;;;;;;13.03;10.53;;;14.00;99.90;;;;;;5035405;28;20516;-69
2023/10/06 04:38:29;;;;;;;12.33;11.10;;;13.90;99.90;;;;;;5035292;28;20920;-70
2023/10/06 04:40:57;;;;;;;12.07;10.00;;;13.90;99.90;;;;;;5035507;28;20825;-70
2023/10/06 04:43:27;;;;;;;10.83;9.60;;;13.90;99.90;;;;;;5035174;28;20444;-70
2023/10/06 04:45:55;;;;;;;14.53;10.37;;;13.90;99.90;;;;;;5035147;28;20475;-70
2023/10/06 04:48:23;;;;;;;12.90;10.10;;;14.00;99.90;;;;;;5035400;28;20458;-70
2023/10/06 04:50:51;;;;;;;11.60;10.00;;;13.90;99.90;;;;;;5034992;28;20503;-70
2023/10/06 04:53:20;;;;;;;13.03;11.00;;;13.90;99.90;;;;;;5035052;28;20435;-70
2023/10/06 04:55:51;;;;;;;13.10;10.43;;;14.00;99.90;;;;;;5034923;28;20474;-70
2023/10/06 04:58:19;;;;;;;10.80;9.70;;;14.00;99.90;;;;;;5033685;28;20831;-70
2023/10/06 05:00:53;;;;;;;11.73;9.53;;;14.00;99.90;;;;;;5034859;28;20432;-70
2023/10/06 05:03:21;;;;;;;12.17;10.33;;;14.00;99.90;;;;;;5034898;28;20461;-70
2023/10/06 05:05:50;;;;;;;10.87;9.77;;;14.00;99.90;;;;;;5034972;28;20823;-69
2023/10/06 05:08:19;;;;;;;11.77;9.57;;;14.00;99.90;;;;;;5034699;28;20439;-70
2023/10/06 05:10:47;;;;;;;11.50;8.60;;;14.00;99.90;;;;;;5034600;28;20881;-70
2023/10/06 05:13:16;;;;;;;10.10;9.10;;;14.00;99.90;;;;;;5034901;28;20431;-70
2023/10/06 05:15:44;;;;;;;10.90;9.90;;;14.00;99.90;;;;;;5033932;28;20459;-70
2023/10/06 05:18:15;;;;;;;12.20;9.67;;;14.00;99.90;;;;;;5033282;28;20490;-70
2023/10/06 05:20:46;;;;;;;9.83;8.80;;;14.00;99.90;;;;;;5034505;28;20423;-69
2023/10/06 05:23:15;;;;;;;11.00;9.90;;;14.00;99.90;;;;;;5034435;28;20435;-69
2023/10/06 05:25:45;;;;;;;12.10;10.00;;;14.00;99.90;;;;;;5033652;28;21034;-70
2023/10/06 05:28:16;;;;;;;13.00;9.67;;;14.00;99.90;;;;;;5034280;28;20847;-69
2023/10/06 05:30:45;;;;;;;10.70;9.70;;;14.00;99.90;;;;;;5034327;28;20485;-70
2023/10/06 05:33:15;;;;;;;12.23;10.93;;;14.00;99.90;;;;;;5034249;28;20479;-70
2023/10/06 05:35:45;;;;;;;11.70;9.43;;;14.00;99.90;;;;;;5034137;28;20985;-70
2023/10/06 05:38:14;;;;;;;12.50;9.97;;;14.00;99.90;;;;;;5034326;28;20809;-70
2023/10/06 05:40:43;;;;;;;10.33;9.23;;;14.00;99.90;;;;;;5034143;28;20518;-70
2023/10/06 05:43:12;;;;;;;10.43;9.43;;;14.00;99.90;;;;;;5032753;28;20439;-70
2023/10/06 05:45:41;;;;;;;11.53;9.60;;;14.00;99.90;;;;;;5034030;28;21022;-69
2023/10/06 05:48:10;;;;;;;12.17;9.43;;;14.00;99.90;;;;;;5034015;28;20928;-69
2023/10/06 05:50:41;;;;;;;11.00;9.80;;;14.00;99.90;;;;;;5032702;28;20463;-71
2023/10/06 05:53:12;;;;;;;12.40;9.10;;;14.00;99.90;;;;;;5034674;28;20439;-70
2023/10/06 05:55:42;;;;;;;12.67;9.40;;;14.00;99.90;;;;;;5034463;28;20539;-70
2023/10/06 05:58:15;;;;;;;12.90;9.67;;;14.00;99.90;;;;;;5034234;28;20951;-70
2023/10/06 06:00:52;;;;;;;11.33;9.63;;;14.00;99.90;;;;;;5035562;28;20857;-70
2023/10/06 06:03:21;;;;;;;10.03;9.00;;;14.00;99.90;;;;;;5034764;28;20496;-70
2023/10/06 06:05:52;;;;;;;11.60;8.77;;;14.00;99.90;;;;;;5034927;28;20984;-70
2023/10/06 06:08:20;;;;;;;11.70;9.73;;;14.00;99.90;;;;;;5034732;28;20420;-70
2023/10/06 06:10:57;;;;;;;14.40;11.70;;;14.00;99.90;;;;;;5033009;28;20470;-70
2023/10/06 06:13:51;;;;;;;12.30;9.17;;;14.00;99.90;;;;;;5034257;28;20419;-70
2023/10/06 06:17:01;;;;;;;12.30;10.00;;;14.00;99.90;;;;;;5034086;28;20415;-70
2023/10/06 06:23:20;;;;;;;12.13;9.50;;;14.00;99.90;;;;;;5033636;28;20422;-69
2023/10/06 06:25:49;;;;;;;11.87;9.77;;;14.00;99.90;;;;;;5033196;28;20836;-69
2023/10/06 06:28:21;;;;;;;12.30;9.20;;;14.10;99.90;;;;;;5032619;28;20505;-69
2023/10/06 06:30:50;;;;;;;10.50;8.90;;;14.10;99.90;;;;;;5033417;28;20455;-70
2023/10/06 06:33:22;;;;;;;9.87;8.83;;;14.10;99.90;;;;;;5033366;28;20470;-70
2023/10/06 06:36:01;;;;;;;10.10;8.93;;;14.10;99.90;;;;;;5032016;28;21011;-70
2023/10/06 06:38:39;;;;;;;12.20;9.27;;;14.10;99.90;;;;;;5033288;28;20423;-70
2023/10/06 06:41:08;;;;;;;12.47;8.80;;;14.10;99.90;;;;;;5033272;28;20940;-70
2023/10/06 06:43:36;;;;;;;10.10;9.10;;;14.10;99.90;;;;;;5033733;28;20446;-69
2023/10/06 06:46:05;;;;;;;10.80;8.40;;;14.10;99.90;;;;;;5033156;28;20885;-70
2023/10/06 06:48:35;;;;;;;12.60;8.73;;;14.10;99.90;;;;;;5033465;28;20434;-69
2023/10/06 06:51:04;;;;;;;10.47;7.70;;;14.20;99.90;;;;;;5031787;28;20574;-70
2023/10/06 06:53:34;;;;;;;12.20;8.00;;;14.20;99.90;;;;;;5033655;28;20526;-70
2023/10/06 06:56:02;;;;;;;13.00;8.40;;;14.20;99.90;;;;;;5033096;28;20561;-70
2023/10/06 06:58:32;;;;;;;9.00;8.13;;;14.20;99.90;;;;;;5033019;28;20439;-70
2023/10/06 07:01:04;;;;;;;11.13;8.07;;;14.20;99.90;;;;;;5033619;28;20506;-69
2023/10/06 07:03:33;;;;;;;10.60;8.30;;;14.20;99.90;;;;;;5033578;28;20431;-69
2023/10/06 07:06:01;;;;;;;11.80;7.83;;;14.30;99.90;;;;;;5033536;28;20467;-69
2023/10/06 07:08:29;;;;;;;8.70;7.47;;;14.30;99.90;;;;;;5033235;28;20494;-70
2023/10/06 07:10:59;;;;;;;9.23;7.40;;;14.30;99.90;;;;;;5033257;28;20435;-70
2023/10/06 07:13:27;;;;;;;12.87;7.83;;;14.30;99.90;;;;;;5033313;28;20442;-70
2023/10/06 07:15:55;;;;;;;12.50;7.40;;;14.30;99.90;;;;;;5032913;28;20465;-69
2023/10/06 07:18:25;;;;;;;10.00;7.70;;;14.40;99.90;;;;;;5033093;28;20473;-69
2023/10/06 07:20:53;;;;;;;9.20;6.87;;;14.40;99.90;;;;;;5033375;28;20558;-70
2023/10/06 07:23:22;;;;;;;8.07;7.20;;;14.40;99.90;;;;;;5033035;28;20474;-70
2023/10/06 07:25:50;;;;;;;10.00;7.33;;;14.40;99.90;;;;;;5031527;28;20483;-70
2023/10/06 07:28:20;;;;;;;8.50;7.00;;;14.50;99.90;;;;;;5033804;28;20449;-70
2023/10/06 07:30:48;;;;;;;12.63;7.80;;;14.50;99.90;;;;;;5033327;28;20467;-69
2023/10/06 07:33:16;;;;;;;11.67;7.40;;;14.50;99.90;;;;;;5033373;28;20578;-69
2023/10/06 07:35:47;;;;;;;12.57;7.00;;;14.50;99.90;;;;;;5032851;28;20495;-70
2023/10/06 07:38:15;;;;;;;8.20;6.00;;;14.60;99.90;;;;;;5032273;28;20439;-69
2023/10/06 07:40:43;;;;;;;10.20;6.93;;;14.60;99.90;;;;;;5036192;28;20493;-70
2023/10/06 07:43:12;;;;;;;8.07;6.40;;;14.60;99.90;;;;;;5036467;28;20431;-70
2023/10/06 07:45:42;;;;;;;10.40;7.30;;;14.60;99.90;;;;;;5036296;28;20998;-70
2023/10/06 07:48:10;;;;;;;7.93;6.80;;;14.60;99.90;;;;;;5037044;28;20443;-70
2023/10/06 07:50:38;;;;;;;8.10;6.63;;;14.70;99.90;;;;;;5036267;28;20485;-70
2023/10/06 07:53:07;;;;;;;7.47;6.10;;;14.70;99.90;;;;;;5036371;28;20498;-70
2023/10/06 07:55:36;;;;;;;15.03;7.30;;;14.70;99.90;;;;;;5036152;28;20456;-70
2023/10/06 07:58:08;;;;;;;9.93;7.67;;;14.70;99.90;;;;;;5036271;28;20439;-70
2023/10/06 08:00:38;;;;;;;9.97;8.80;;;14.80;99.90;;;;;;5036544;28;20750;-70
2023/10/06 08:03:10;;;;;;;8.57;7.50;;;14.80;99.90;;;;;;5036259;28;20430;-69
2023/10/06 08:05:40;;;;;;;10.33;7.10;;;14.80;99.90;;;;;;5036616;28;20455;-69
2023/10/06 08:08:08;;;;;;;10.43;6.67;;;14.90;99.90;;;;;;5036328;28;20439;-70
2023/10/06 08:10:36;;;;;;;8.13;6.20;;;14.90;99.90;;;;;;5034709;28;20497;-70
2023/10/06 08:13:05;;;;;;;9.80;6.50;;;15.00;99.90;;;;;;5035906;28;20470;-70
2023/10/06 08:15:35;;;;;;;11.50;6.60;;;15.00;99.90;;;;;;5035948;28;20538;-70
2023/10/06 08:18:06;;;;;;;7.53;6.27;;;15.00;99.90;;;;;;5036311;28;20426;-70
2023/10/06 08:20:35;;;;;;;11.43;7.00;;;15.10;99.90;;;;;;5036441;28;20506;-70
2023/10/06 08:23:05;;;;;;;7.90;6.90;;;15.10;99.90;;;;;;5035777;28;20859;-70
2023/10/06 08:25:33;;;;;;;8.53;6.17;;;15.10;99.90;;;;;;5035653;28;20490;-70
2023/10/06 08:28:21;;;;;;;11.03;7.10;;;15.20;99.90;;;;;;5035719;28;20447;-70
2023/10/06 08:30:49;;;;;;;13.90;7.00;;;15.20;99.90;;;;;;5035553;28;20980;-70
2023/10/06 08:33:17;;;;;;;16.83;7.47;;;15.20;99.90;;;;;;5035622;28;20462;-70
2023/10/06 08:35:47;;;;;;;9.13;6.07;;;15.20;99.90;;;;;;5035556;28;20454;-70
2023/10/06 08:38:17;;;;;;;14.10;7.33;;;15.20;99.90;;;;;;5034071;28;20538;-69
2023/10/06 08:40:46;;;;;;;10.20;6.97;;;15.20;99.90;;;;;;5035612;28;20431;-70
2023/10/06 08:43:20;;;;;;;8.53;6.60;;;15.30;99.90;;;;;;5035331;28;20470;-70
2023/10/06 08:45:48;;;;;;;8.23;6.10;;;15.30;99.90;;;;;;5034437;28;20455;-70
2023/10/06 08:48:24;;;;;;;9.33;6.57;;;15.30;99.90;;;;;;5035241;28;20446;-70
2023/10/06 08:50:59;;;;;;;11.10;6.57;;;15.30;99.90;;;;;;5033246;28;20442;-70
2023/10/06 08:53:28;;;;;;;9.83;6.20;;;15.30;99.90;;;;;;5035250;28;20463;-70
2023/10/06 08:55:57;;;;;;;11.67;6.73;;;15.40;99.90;;;;;;5034149;28;20467;-70
2023/10/06 08:58:26;;;;;;;10.47;6.67;;;15.40;99.90;;;;;;5035247;28;20439;-70
2023/10/06 09:00:56;;;;;;;7.30;6.23;;;15.40;99.90;;;;;;5035114;28;20447;-70
2023/10/06 09:03:24;;;;;;;8.27;5.83;;;15.40;99.90;;;;;;5035618;28;20435;-70
2023/10/06 09:05:57;;;;;;;7.00;5.73;;;15.50;99.90;;;;;;5035363;28;20805;-70
2023/10/06 09:08:25;;;;;;;6.93;5.83;;;15.50;99.90;;;;;;5035447;28;20435;-70
2023/10/06 09:10:55;;;;;;;12.43;7.63;;;15.50;99.90;;;;;;5035741;28;20990;-70
2023/10/06 09:13:24;;;;;;;12.90;5.97;;;15.50;99.90;;;;;;5034097;28;20470;-70
2023/10/06 09:15:59;;;;;;;10.27;6.10;;;15.60;99.90;;;;;;5035953;28;20851;-70
2023/10/06 09:18:28;;;;;;;8.43;6.20;;;15.60;99.90;;;;;;5035259;28;20419;-70
2023/10/06 09:21:12;;;;;;;10.30;5.90;;;15.60;99.90;;;;;;5034248;28;20439;-70
2023/10/06 09:23:40;;;;;;;7.10;5.90;;;15.60;99.90;;;;;;5035367;28;20788;-70
2023/10/06 09:26:11;;;;;;;8.00;6.10;;;15.60;99.90;;;;;;5035081;28;20469;-70
2023/10/06 09:28:50;;;;;;;10.33;5.93;;;15.60;99.90;;;;;;5035513;28;20502;-70
2023/10/06 09:31:33;;;;;;;7.47;5.63;;;15.60;99.90;;;;;;5035057;28;20446;-70
2023/10/06 09:34:01;;;;;;;8.50;6.10;;;15.70;99.90;;;;;;5035174;28;21026;-70
2023/10/06 09:36:33;;;;;;;13.77;5.80;;;15.70;99.90;;;;;;5034927;28;20432;-70
2023/10/06 09:39:17;;;;;;;9.37;6.40;;;15.70;99.90;;;;;;5035431;28;20876;-70
2023/10/06 09:41:47;;;;;;;6.83;5.57;;;15.70;99.90;;;;;;5034714;28;20414;-70
2023/10/06 09:44:19;;;;;;;9.30;5.93;;;15.70;99.90;;;;;;5034918;28;20975;-70
2023/10/06 09:46:53;;;;;;;11.73;6.73;;;15.70;99.90;;;;;;5034510;28;20415;-70
2023/10/06 09:49:22;;;;;;;8.50;6.87;;;15.60;99.90;;;;;;5034798;28;20432;-70
2023/10/06 09:51:53;;;;;;;9.43;7.00;;;15.60;99.90;;;;;;5034480;28;20443;-70
2023/10/06 09:54:23;;;;;;;7.93;6.70;;;15.60;99.90;;;;;;5034412;28;20482;-70
2023/10/06 09:56:54;;;;;;;8.40;6.80;;;15.60;99.90;;;;;;5034226;28;20434;-70
2023/10/06 09:59:25;;;;;;;9.40;6.90;;;15.50;99.90;;;;;;5034110;28;20493;-70
2023/10/06 10:01:56;;;;;;;9.47;7.20;;;15.50;99.90;;;;;;5033825;28;20419;-70
2023/10/06 10:04:29;;;;;;;9.20;7.50;;;15.50;99.90;;;;;;5034292;28;20809;-70
2023/10/06 10:07:01;;;;;;;8.50;7.57;;;15.50;99.90;;;;;;5033177;28;20442;-70
2023/10/06 10:09:31;;;;;;;9.30;6.87;;;15.50;99.90;;;;;;5034277;28;20785;-70
2023/10/06 10:12:09;;;;;;;8.47;7.53;;;15.40;99.90;;;;;;5034745;28;20429;-70
2023/10/06 10:18:53;;;;;;;10.30;7.47;;;15.50;99.90;;;;;;5034593;28;20406;-70
2023/10/06 10:21:22;;;;;;;10.57;8.03;;;15.50;99.90;;;;;;5032726;28;20827;-68
2023/10/06 10:23:52;;;;;;;9.20;8.00;;;15.50;99.90;;;;;;5032401;28;20542;-70
2023/10/06 10:26:39;;;;;;;10.03;7.70;;;15.50;99.90;;;;;;5033379;28;20459;-70
2023/10/06 10:29:29;;;;;;;11.20;7.57;;;15.60;99.90;;;;;;5033678;28;20419;-70
2023/10/06 10:32:11;;;;;;;10.63;7.93;;;15.60;99.90;;;;;;5032242;28;20501;-70
2023/10/06 10:35:12;;;;;;;11.40;8.10;;;15.60;99.90;;;;;;5033241;28;20484;-70
2023/10/06 10:37:57;;;;;;;8.30;7.40;;;15.70;99.90;;;;;;5030840;28;20459;-70
2023/10/06 10:40:31;;;;;;;8.30;7.43;;;15.70;99.90;;;;;;5032012;28;20435;-70
2023/10/06 10:43:05;;;;;;;11.13;7.13;;;15.80;99.90;;;;;;5033237;28;20519;-70
2023/10/06 10:45:36;;;;;;;9.70;5.87;;;15.80;99.90;;;;;;5033611;28;20813;-70
2023/10/06 10:48:06;;;;;;;8.17;7.37;;;15.90;99.90;;;;;;5032164;28;20450;-70
2023/10/06 10:50:57;;;;;;;9.97;7.20;;;15.90;99.90;;;;;;5033277;28;20477;-70
2023/10/06 10:53:28;;;;;;;8.37;6.40;;;16.00;99.90;;;;;;5033164;28;20546;-70
2023/10/06 10:56:01;;;;;;;7.33;6.37;;;16.00;99.90;;;;;;5031894;28;20437;-70
2023/10/06 10:58:56;;;;;;;9.63;7.23;;;16.00;99.90;;;;;;5033516;28;20463;-70
2023/10/06 11:01:27;;;;;;;11.33;7.50;;;16.10;99.90;;;;;;5032019;28;20455;-70
2023/10/06 11:04:31;;;;;;;9.53;6.00;;;16.30;99.90;;;;;;5033123;28;20411;-70
2023/10/06 11:07:09;;;;;;;11.47;7.27;;;16.30;99.90;;;;;;5033532;28;20419;-70
2023/10/06 11:09:41;;;;;;;9.03;6.80;;;16.30;99.90;;;;;;5033346;28;20784;-70
2023/10/06 11:12:25;;;;;;;11.50;7.10;;;16.30;99.90;;;;;;5033327;28;20797;-70
2023/10/06 11:15:02;;;;;;;8.03;6.97;;;16.30;99.90;;;;;;5035670;28;20950;-70
2023/10/06 11:17:32;;;;;;;9.37;6.30;;;16.40;99.90;;;;;;5037444;28;20738;-71
2023/10/06 11:20:08;;;;;;;6.80;5.67;;;16.40;99.90;;;;;;5035562;28;20435;-70
2023/10/06 11:22:37;;;;;;;9.60;5.87;;;16.50;99.90;;;;;;5036728;28;20419;-70
2023/10/06 11:25:08;;;;;;;9.00;6.57;;;16.60;99.90;;;;;;5036789;28;21021;-71
2023/10/06 11:27:39;;;;;;;9.50;6.00;;;16.70;99.90;;;;;;5036652;28;20813;-71
2023/10/06 11:30:14;;;;;;;8.33;5.73;;;16.70;99.90;;;;;;5035516;28;20489;-70
2023/10/06 11:32:43;;;;;;;8.97;4.87;;;16.70;99.90;;;;;;5035359;28;20448;-70
2023/10/06 11:35:15;;;;;;;8.20;5.20;;;16.80;99.90;;;;;;5036422;28;20453;-72
2023/10/06 11:37:43;;;;;;;7.07;5.13;;;16.80;99.90;;;;;;5035272;28;20422;-71
2023/10/06 11:40:12;;;;;;;7.97;5.53;;;16.80;99.90;;;;;;5036998;28;20466;-71
2023/10/06 11:42:43;;;;;;;7.63;5.37;;;16.90;99.90;;;;;;5036348;28;20434;-71
2023/10/06 11:45:25;;;;;;;7.13;4.57;;;16.90;99.90;;;;;;5035129;28;20469;-70
2023/10/06 11:47:53;;;;;;;10.43;5.50;;;16.90;99.90;;;;;;5036366;28;20398;-70
2023/10/06 11:50:23;;;;;;;7.10;4.93;;;17.00;99.90;;;;;;5036278;28;20505;-71
2023/10/06 11:52:52;;;;;;;7.43;5.00;;;17.00;99.90;;;;;;5036765;28;20389;-70
2023/10/06 11:55:31;;;;;;;7.33;5.10;;;17.00;99.90;;;;;;5036113;28;20459;-70
2023/10/06 11:58:04;;;;;;;6.27;4.97;;;17.10;99.90;;;;;;5036612;28;20416;-71
2023/10/06 12:00:37;;;;;;;6.23;4.67;;;17.10;99.90;;;;;;5036274;28;20508;-71
2023/10/06 12:03:08;;;;;;;7.30;4.67;;;17.20;99.90;;;;;;5034823;28;20402;-71
2023/10/06 12:05:36;;;;;;;9.10;4.50;;;17.20;99.90;;;;;;5036320;28;20475;-70
2023/10/06 12:08:08;;;;;;;8.60;4.17;;;17.20;99.90;;;;;;5036161;28;20417;-71
2023/10/06 12:10:47;;;;;;;6.97;4.90;;;17.20;99.90;;;;;;5036145;28;20458;-70
2023/10/06 12:13:17;;;;;;;10.30;4.97;;;17.30;99.90;;;;;;5034669;28;20533;-71
2023/10/06 12:15:46;;;;;;;6.20;4.70;;;17.40;99.90;;;;;;5035645;28;20933;-71
2023/10/06 12:18:15;;;;;;;5.87;4.90;;;17.40;99.90;;;;;;5035757;28;20450;-71
2023/10/06 12:20:43;;;;;;;7.70;5.00;;;17.40;99.90;;;;;;5036215;28;20410;-70
2023/10/06 12:23:11;;;;;;;6.33;4.60;;;17.40;99.90;;;;;;5036196;28;20441;-71
2023/10/06 12:25:40;;;;;;;6.03;4.37;;;17.50;99.90;;;;;;5035616;28;20513;-71
2023/10/06 12:28:13;;;;;;;8.87;5.00;;;17.50;99.90;;;;;;5034370;28;20451;-71
2023/10/06 12:30:43;;;;;;;7.83;4.53;;;17.50;99.90;;;;;;5035985;28;20823;-71
2023/10/06 12:33:11;;;;;;;6.93;5.00;;;17.60;99.90;;;;;;5034279;28;20944;-71
2023/10/06 12:35:40;;;;;;;6.63;4.70;;;17.60;99.90;;;;;;5035430;28;20482;-71
2023/10/06 12:38:08;;;;;;;6.87;4.70;;;17.60;99.90;;;;;;5035404;28;20416;-71
2023/10/06 12:40:38;;;;;;;6.87;4.87;;;17.70;99.90;;;;;;5034123;28;20513;-70
2023/10/06 12:43:07;;;;;;;6.67;5.23;;;17.80;99.90;;;;;;5034161;28;20447;-71
2023/10/06 12:45:36;;;;;;;7.83;5.50;;;17.80;99.90;;;;;;5035247;28;20466;-71
2023/10/06 12:48:07;;;;;;;9.03;4.57;;;17.80;99.90;;;;;;5035305;28;20925;-71
2023/10/06 12:50:40;;;;;;;6.57;5.20;;;17.90;99.90;;;;;;5035450;28;20755;-71
2023/10/06 12:53:11;;;;;;;9.60;5.73;;;17.90;99.90;;;;;;5035216;28;20424;-70
2023/10/06 12:55:41;;;;;;;5.63;5.00;;;17.90;99.90;;;;;;5035076;28;20483;-71
2023/10/06 12:58:14;;;;;;;5.90;4.70;;;18.00;99.90;;;;;;5035454;28;20405;-71
2023/10/06 13:00:43;;;;;;;8.37;5.00;;;18.00;99.90;;;;;;5035653;28;20848;-71
2023/10/06 13:03:16;;;;;;;5.83;4.00;;;18.10;99.90;;;;;;5034928;28;20977;-70
2023/10/06 13:05:46;;;;;;;5.07;4.57;;;18.10;99.90;;;;;;5035154;28;20455;-71
2023/10/06 13:08:20;;;;;;;8.70;5.40;;;18.20;99.90;;;;;;5033670;28;20435;-71